Time;durP1;ratioP1;P1;durP2;ratioP2;P2;SDS_P1;SDS_P2;PMS_P1;PMS_P2;Temp;Humidity;BMP_temperature;BMP_pressure;BME280_temperature;BME280_humidity;BME280_pressure;Samples;Min_cycle;Max_cycle;Signal;HPM_P1;HPM_P2
2022/04/19 00:00:38;;;;;;;1.40;0.50;;;17.00;56.20;;;;;;5033452;28;20056;-65
2022/04/19 00:03:04;;;;;;;0.93;0.45;;;17.00;56.30;;;;;;5033164;28;20025;-65
2022/04/19 00:05:30;;;;;;;1.65;0.52;;;17.00;56.30;;;;;;5033146;28;20041;-65
2022/04/19 00:07:56;;;;;;;1.15;0.35;;;17.00;56.30;;;;;;5016991;28;20049;-65
2022/04/19 00:10:22;;;;;;;0.75;0.40;;;17.00;56.30;;;;;;5034299;28;20068;-65
2022/04/19 00:12:47;;;;;;;0.85;0.30;;;17.00;56.30;;;;;;5033141;28;20025;-65
2022/04/19 00:15:15;;;;;;;3.45;0.63;;;17.00;56.40;;;;;;5034019;28;20036;-65
2022/04/19 00:17:41;;;;;;;1.75;0.55;;;17.00;56.40;;;;;;5034129;28;20018;-65
2022/04/19 00:20:07;;;;;;;0.68;0.30;;;17.00;56.40;;;;;;5034139;28;20022;-65
2022/04/19 00:22:32;;;;;;;3.63;0.98;;;17.00;56.40;;;;;;5034053;28;20033;-65
2022/04/19 00:24:59;;;;;;;3.13;0.68;;;17.00;56.50;;;;;;5033866;28;20480;-65
2022/04/19 00:27:25;;;;;;;2.15;0.70;;;17.00;56.50;;;;;;5033925;28;20013;-65
2022/04/19 00:29:53;;;;;;;1.75;0.40;;;17.00;56.60;;;;;;5033901;28;20451;-65
2022/04/19 00:32:19;;;;;;;1.15;0.50;;;17.00;56.60;;;;;;5033719;28;20017;-65
2022/04/19 00:34:46;;;;;;;1.92;0.68;;;17.10;56.60;;;;;;5032544;28;20024;-65
2022/04/19 00:37:13;;;;;;;1.08;0.60;;;17.00;56.60;;;;;;5032459;28;20037;-65
2022/04/19 00:39:39;;;;;;;1.15;0.45;;;17.10;56.70;;;;;;5033833;28;20484;-65
2022/04/19 00:42:07;;;;;;;1.45;0.70;;;17.10;56.70;;;;;;5032288;28;20067;-65
2022/04/19 00:44:37;;;;;;;2.15;0.50;;;17.10;56.70;;;;;;5033535;28;20029;-65
2022/04/19 00:47:05;;;;;;;2.17;0.52;;;17.10;56.80;;;;;;5033199;28;20101;-65
2022/04/19 00:49:33;;;;;;;2.33;0.50;;;17.10;56.80;;;;;;5033630;28;20543;-65
2022/04/19 00:51:59;;;;;;;0.93;0.52;;;17.10;56.80;;;;;;5032368;28;20069;-65
2022/04/19 00:54:25;;;;;;;1.13;0.43;;;17.10;56.90;;;;;;5032104;28;20468;-65
2022/04/19 00:56:51;;;;;;;0.70;0.40;;;17.10;56.90;;;;;;5032108;28;20106;-65
2022/04/19 00:59:20;;;;;;;3.80;0.68;;;17.10;56.90;;;;;;5015670;28;20036;-65
2022/04/19 01:01:45;;;;;;;1.45;0.50;;;17.10;56.90;;;;;;5032216;28;20026;-65
2022/04/19 01:04:11;;;;;;;2.53;0.40;;;17.10;57.00;;;;;;5033294;28;20028;-65
2022/04/19 01:06:37;;;;;;;1.08;0.32;;;17.10;57.00;;;;;;5033287;28;20017;-65
2022/04/19 01:09:02;;;;;;;1.15;0.40;;;17.10;57.00;;;;;;5032090;28;20053;-65
2022/04/19 01:14:15;;;;;;;2.15;0.60;;;17.10;57.10;;;;;;5031886;28;20231;-65
2022/04/19 01:16:41;;;;;;;0.95;0.40;;;17.10;57.10;;;;;;5015740;28;20531;-65
2022/04/19 01:19:15;;;;;;;1.65;0.52;;;17.10;57.20;;;;;;5032849;28;20104;-65
2022/04/19 01:21:44;;;;;;;2.58;0.68;;;17.10;57.10;;;;;;5031769;28;20021;-65
2022/04/19 01:24:14;;;;;;;1.55;0.65;;;17.10;57.20;;;;;;5032773;28;20032;-65
2022/04/19 01:26:41;;;;;;;1.00;0.45;;;17.10;57.20;;;;;;5031510;28;20029;-65
2022/04/19 01:29:07;;;;;;;1.58;0.40;;;17.10;57.20;;;;;;5032747;28;20021;-65
2022/04/19 01:31:33;;;;;;;3.42;0.57;;;17.10;57.20;;;;;;5032820;28;20021;-65
2022/04/19 01:33:59;;;;;;;1.02;0.60;;;17.10;57.30;;;;;;5031549;28;20025;-65
2022/04/19 01:36:25;;;;;;;0.75;0.60;;;17.10;57.30;;;;;;5031204;28;20396;-65
2022/04/19 01:38:51;;;;;;;1.25;0.50;;;17.10;57.30;;;;;;5032273;28;20084;-65
2022/04/19 01:41:16;;;;;;;1.38;0.60;;;17.10;57.20;;;;;;5032535;28;20053;-65
2022/04/19 01:43:44;;;;;;;1.13;0.57;;;17.10;57.30;;;;;;5032642;28;20025;-65
2022/04/19 01:46:10;;;;;;;1.73;0.60;;;17.10;57.30;;;;;;5032604;28;20013;-65
2022/04/19 01:48:36;;;;;;;1.30;0.45;;;17.20;57.40;;;;;;5031512;28;20400;-65
2022/04/19 01:51:02;;;;;;;2.25;0.60;;;17.20;58.40;;;;;;5032533;28;20396;-65
2022/04/19 01:53:28;;;;;;;0.57;0.40;;;17.20;57.40;;;;;;5032260;28;20029;-65
2022/04/19 01:55:55;;;;;;;0.82;0.38;;;17.20;57.50;;;;;;5032462;28;20097;-65
2022/04/19 01:58:20;;;;;;;0.57;0.40;;;17.20;58.50;;;;;;5031722;28;20026;-65
2022/04/19 02:00:46;;;;;;;0.95;0.40;;;17.20;57.50;;;;;;5031034;28;20031;-65
2022/04/19 02:03:11;;;;;;;1.30;0.40;;;17.20;57.60;;;;;;5032155;28;20121;-65
2022/04/19 02:05:37;;;;;;;0.82;0.43;;;17.10;57.50;;;;;;5032204;28;20021;-65
2022/04/19 02:08:03;;;;;;;0.73;0.30;;;17.20;57.60;;;;;;5032255;28;20030;-65
2022/04/19 02:10:29;;;;;;;1.08;0.30;;;17.20;57.60;;;;;;5032327;28;20137;-65
2022/04/19 02:12:54;;;;;;;1.05;0.45;;;17.20;57.60;;;;;;5032198;28;20105;-65
2022/04/19 02:15:20;;;;;;;2.28;0.43;;;17.20;57.60;;;;;;5032383;28;20026;-65
2022/04/19 02:17:50;;;;;;;1.20;0.50;;;17.20;57.60;;;;;;5031041;28;20033;-65
2022/04/19 02:20:16;;;;;;;1.35;0.38;;;17.20;57.60;;;;;;5030820;28;20018;-65
2022/04/19 02:22:42;;;;;;;0.90;0.50;;;17.20;57.80;;;;;;5014477;28;20021;-65
2022/04/19 02:25:09;;;;;;;1.63;0.50;;;17.20;57.70;;;;;;5030966;28;20079;-65
2022/04/19 02:27:34;;;;;;;0.85;0.50;;;17.10;57.70;;;;;;5032240;28;20028;-65
2022/04/19 02:30:04;;;;;;;0.65;0.40;;;17.20;57.80;;;;;;5032233;28;20026;-65
2022/04/19 02:32:31;;;;;;;1.17;0.40;;;17.20;57.80;;;;;;5031043;28;20112;-65
2022/04/19 02:34:57;;;;;;;0.75;0.40;;;17.20;57.80;;;;;;5030839;28;20029;-65
2022/04/19 02:37:23;;;;;;;0.57;0.30;;;17.20;57.80;;;;;;5030452;28;20038;-65
2022/04/19 02:39:49;;;;;;;2.13;0.50;;;17.20;57.80;;;;;;5030685;28;20151;-65
2022/04/19 02:42:15;;;;;;;1.10;0.50;;;17.20;57.90;;;;;;5031876;28;20369;-65
2022/04/19 02:44:40;;;;;;;1.63;0.60;;;17.20;57.90;;;;;;5032156;28;20037;-65
2022/04/19 02:47:06;;;;;;;1.48;0.68;;;17.20;57.90;;;;;;5032016;28;20025;-65
2022/04/19 02:49:33;;;;;;;0.82;0.60;;;17.20;58.00;;;;;;5031766;28;20384;-65
2022/04/19 02:51:59;;;;;;;2.00;0.55;;;17.20;58.00;;;;;;5031790;28;20034;-65
2022/04/19 02:54:25;;;;;;;2.05;0.40;;;17.20;58.00;;;;;;5031918;28;20027;-65
2022/04/19 02:56:51;;;;;;;1.13;0.60;;;17.20;58.10;;;;;;5031884;28;20484;-65
2022/04/19 02:59:17;;;;;;;2.22;0.52;;;17.20;58.10;;;;;;5031977;28;20030;-65
2022/04/19 03:01:43;;;;;;;1.05;0.55;;;17.20;58.10;;;;;;5030657;28;20059;-65
2022/04/19 03:04:08;;;;;;;1.50;0.55;;;17.20;58.10;;;;;;5031725;28;20076;-65
2022/04/19 03:06:34;;;;;;;0.65;0.50;;;17.20;58.10;;;;;;5031617;28;20030;-65
2022/04/19 03:09:00;;;;;;;0.75;0.40;;;17.20;58.10;;;;;;5031716;28;20029;-65
2022/04/19 03:11:26;;;;;;;0.95;0.45;;;17.20;58.10;;;;;;5033372;28;20083;-65
2022/04/19 03:13:52;;;;;;;1.33;0.50;;;17.20;58.20;;;;;;5034178;28;20439;-65
2022/04/19 03:16:17;;;;;;;1.40;0.52;;;17.20;58.20;;;;;;5035198;28;20024;-65
2022/04/19 03:18:43;;;;;;;3.20;0.52;;;17.20;58.20;;;;;;5034173;28;20041;-65
2022/04/19 03:21:12;;;;;;;1.42;0.50;;;17.20;58.30;;;;;;5033914;28;20033;-65
2022/04/19 03:29:06;;;;;;;1.05;0.50;;;17.20;58.40;;;;;;5035116;28;20546;-65
2022/04/19 03:31:34;;;;;;;2.30;0.65;;;17.20;58.40;;;;;;5034863;28;20029;-65
2022/04/19 03:34:01;;;;;;;1.02;0.55;;;17.20;58.40;;;;;;5035155;28;20017;-65
2022/04/19 03:36:26;;;;;;;0.30;0.30;;;17.20;58.40;;;;;;5033308;28;20030;-65
2022/04/19 03:38:53;;;;;;;1.02;0.60;;;17.20;58.40;;;;;;5034701;28;20049;-65
2022/04/19 03:41:19;;;;;;;2.83;0.50;;;17.20;59.40;;;;;;5034846;28;20026;-65
2022/04/19 03:43:44;;;;;;;1.70;0.70;;;17.20;58.50;;;;;;5034766;28;20384;-65
2022/04/19 03:46:10;;;;;;;1.15;0.50;;;17.20;58.40;;;;;;5033742;28;20415;-65
2022/04/19 03:48:36;;;;;;;2.70;0.70;;;17.20;58.40;;;;;;5033603;28;20487;-65
2022/04/19 03:51:03;;;;;;;1.45;0.55;;;17.20;58.50;;;;;;5033337;28;20112;-65
2022/04/19 03:53:29;;;;;;;1.05;0.60;;;17.20;58.50;;;;;;5033220;28;20080;-65
2022/04/19 03:55:55;;;;;;;1.38;0.57;;;17.20;58.50;;;;;;5033494;28;20022;-65
2022/04/19 03:58:21;;;;;;;1.58;0.55;;;17.20;58.50;;;;;;5033357;28;20036;-65
2022/04/19 04:00:48;;;;;;;1.45;0.60;;;17.30;58.60;;;;;;5034631;28;20029;-65
2022/04/19 04:03:13;;;;;;;0.82;0.50;;;17.20;58.60;;;;;;5034374;28;20025;-65
2022/04/19 04:05:39;;;;;;;1.90;0.60;;;17.30;58.60;;;;;;5034122;28;20071;-65
2022/04/19 04:08:05;;;;;;;1.42;0.50;;;17.30;58.70;;;;;;5033319;28;20455;-65
2022/04/19 04:10:31;;;;;;;1.33;0.50;;;17.20;58.60;;;;;;5034448;28;20044;-65
2022/04/19 04:12:58;;;;;;;0.60;0.55;;;17.20;58.60;;;;;;5034394;28;20026;-65
2022/04/19 04:15:24;;;;;;;1.25;0.43;;;17.20;58.70;;;;;;5034093;28;20033;-65
2022/04/19 04:17:49;;;;;;;1.00;0.47;;;17.20;58.70;;;;;;5034146;28;20022;-65
2022/04/19 04:20:15;;;;;;;1.80;0.52;;;17.30;58.70;;;;;;5032671;28;20410;-65
2022/04/19 04:22:41;;;;;;;0.73;0.40;;;17.30;58.80;;;;;;5033465;28;20156;-65
2022/04/19 04:25:07;;;;;;;1.27;0.60;;;17.20;58.70;;;;;;5034130;28;20059;-65
2022/04/19 04:27:32;;;;;;;1.38;0.70;;;17.30;58.80;;;;;;5033991;28;20047;-65
2022/04/19 04:29:58;;;;;;;1.73;0.82;;;17.20;58.70;;;;;;5033942;28;20056;-65
2022/04/19 04:32:23;;;;;;;0.38;0.38;;;17.20;58.90;;;;;;5033988;28;20439;-65
2022/04/19 04:34:49;;;;;;;1.08;0.60;;;17.20;58.80;;;;;;5033560;28;20033;-65
2022/04/19 04:37:15;;;;;;;0.90;0.50;;;17.20;58.80;;;;;;5033997;28;20021;-65
2022/04/19 04:39:40;;;;;;;1.33;0.55;;;17.20;58.90;;;;;;5032470;28;20394;-65
2022/04/19 04:42:06;;;;;;;2.25;0.60;;;17.30;58.90;;;;;;5033627;28;20052;-65
2022/04/19 04:44:32;;;;;;;1.35;0.50;;;17.30;58.90;;;;;;5033616;28;20013;-65
2022/04/19 04:49:41;;;;;;;0.73;0.50;;;17.30;58.90;;;;;;5033718;28;20124;-65
2022/04/19 04:52:12;;;;;;;0.95;0.45;;;17.30;59.00;;;;;;5033640;28;20115;-65
2022/04/19 04:54:38;;;;;;;0.93;0.50;;;17.30;59.00;;;;;;5032185;28;20018;-65
2022/04/19 04:57:04;;;;;;;0.55;0.50;;;17.20;59.00;;;;;;5032385;28;20049;-65
2022/04/19 04:59:30;;;;;;;0.80;0.50;;;17.30;59.00;;;;;;5033319;28;20067;-65
2022/04/19 05:01:57;;;;;;;1.70;0.65;;;17.30;59.00;;;;;;5031966;28;20035;-65
2022/04/19 05:04:22;;;;;;;1.40;0.70;;;17.30;59.00;;;;;;5032014;28;20028;-65
2022/04/19 05:06:48;;;;;;;4.13;0.73;;;17.30;59.10;;;;;;5032370;28;20053;-65
2022/04/19 05:09:14;;;;;;;1.45;0.60;;;17.30;59.10;;;;;;5033396;28;20026;-65
2022/04/19 05:11:39;;;;;;;0.88;0.70;;;17.30;59.10;;;;;;5032941;28;20559;-65
2022/04/19 05:14:07;;;;;;;1.33;0.45;;;17.30;59.10;;;;;;5033310;28;20100;-65
2022/04/19 05:16:36;;;;;;;1.52;0.60;;;17.30;59.20;;;;;;5031608;28;20087;-65
2022/04/19 05:19:03;;;;;;;1.00;0.50;;;17.30;59.20;;;;;;5032012;28;20034;-65
2022/04/19 05:21:28;;;;;;;2.17;0.77;;;17.30;59.20;;;;;;5032670;28;20021;-65
2022/04/19 05:23:55;;;;;;;1.20;0.60;;;17.30;59.30;;;;;;5032932;28;20026;-65
2022/04/19 05:26:21;;;;;;;3.10;0.70;;;17.30;59.20;;;;;;5032912;28;20014;-65
2022/04/19 05:28:47;;;;;;;0.50;0.40;;;17.30;59.20;;;;;;5032886;28;20029;-65
2022/04/19 05:31:12;;;;;;;0.60;0.52;;;17.30;59.20;;;;;;5031495;28;20029;-65
2022/04/19 05:33:38;;;;;;;0.98;0.60;;;17.30;59.30;;;;;;5031712;28;20037;-65
2022/04/19 05:36:04;;;;;;;0.93;0.60;;;17.30;59.30;;;;;;5031483;28;20021;-65
2022/04/19 05:38:30;;;;;;;0.52;0.50;;;17.30;59.30;;;;;;5031245;28;20048;-65
2022/04/19 05:40:56;;;;;;;2.05;0.40;;;17.30;59.30;;;;;;5031404;28;20036;-65
2022/04/19 05:43:22;;;;;;;0.80;0.50;;;17.30;59.30;;;;;;5026342;28;20026;-65
2022/04/19 05:45:48;;;;;;;0.85;0.50;;;17.30;59.40;;;;;;5029287;28;20126;-65
2022/04/19 05:48:14;;;;;;;0.82;0.30;;;17.30;59.40;;;;;;5037880;28;20476;-65
2022/04/19 05:50:39;;;;;;;0.85;0.50;;;17.30;59.40;;;;;;5032770;28;20096;-65
2022/04/19 05:53:05;;;;;;;1.77;0.50;;;17.30;60.40;;;;;;5032759;28;20025;-65
2022/04/19 05:55:32;;;;;;;1.08;0.40;;;17.30;59.40;;;;;;5035438;28;20022;-65
2022/04/19 05:57:58;;;;;;;0.63;0.40;;;17.30;59.50;;;;;;5030591;28;20056;-64
2022/04/19 06:00:24;;;;;;;1.27;0.60;;;17.30;59.50;;;;;;5032775;28;20548;-65
2022/04/19 06:05:34;;;;;;;1.52;0.65;;;17.30;59.40;;;;;;5031606;28;20148;-65
2022/04/19 06:08:00;;;;;;;2.83;0.65;;;17.30;59.40;;;;;;5031660;28;20108;-64
2022/04/19 06:10:25;;;;;;;1.55;0.55;;;17.30;59.40;;;;;;5025623;28;20109;-64
2022/04/19 06:12:51;;;;;;;2.35;0.85;;;17.30;59.40;;;;;;5011814;28;20112;-65
2022/04/19 06:15:17;;;;;;;0.63;0.40;;;17.30;59.40;;;;;;5012468;28;20025;-65
2022/04/19 06:17:42;;;;;;;1.80;0.70;;;17.30;59.40;;;;;;5012329;28;20049;-65
2022/04/19 06:20:08;;;;;;;1.75;0.60;;;17.30;59.40;;;;;;5012447;28;20488;-65
2022/04/19 06:22:34;;;;;;;1.50;0.68;;;17.20;59.40;;;;;;5012344;28;20432;-65
2022/04/19 06:25:01;;;;;;;1.27;0.50;;;17.20;59.30;;;;;;5011118;28;20026;-64
2022/04/19 06:27:27;;;;;;;1.48;0.73;;;17.30;59.40;;;;;;5012555;28;20108;-64
2022/04/19 06:29:53;;;;;;;0.95;0.60;;;17.20;59.30;;;;;;5010906;28;20541;-65
2022/04/19 06:32:19;;;;;;;0.70;0.70;;;17.20;59.30;;;;;;5011343;28;20084;-65
2022/04/19 06:34:44;;;;;;;2.60;0.50;;;17.20;59.30;;;;;;5015830;28;20028;-65
2022/04/19 06:37:10;;;;;;;2.83;0.80;;;17.30;59.40;;;;;;5031886;28;20025;-64
2022/04/19 06:39:36;;;;;;;1.83;0.93;;;17.20;59.30;;;;;;5027092;28;20080;-64
2022/04/19 06:42:02;;;;;;;0.73;0.60;;;17.20;59.40;;;;;;5021371;28;20114;-64
2022/04/19 06:44:28;;;;;;;1.27;0.77;;;17.20;59.30;;;;;;5012537;28;20442;-64
2022/04/19 06:46:53;;;;;;;1.60;1.00;;;17.20;59.30;;;;;;5014642;28;20492;-64
2022/04/19 06:49:19;;;;;;;3.42;1.20;;;17.20;59.30;;;;;;5015371;28;20488;-64
2022/04/19 06:51:45;;;;;;;5.40;1.70;;;17.20;59.20;;;;;;5015797;28;20061;-64
2022/04/19 06:54:12;;;;;;;3.08;1.08;;;17.20;59.20;;;;;;5016044;28;20057;-64
2022/04/19 06:56:38;;;;;;;8.10;1.55;;;17.20;60.20;;;;;;5034352;28;20028;-64
2022/04/19 06:59:03;;;;;;;4.80;1.65;;;17.20;59.20;;;;;;5034543;28;20035;-64
2022/04/19 07:01:29;;;;;;;7.15;1.67;;;17.20;59.20;;;;;;5035157;28;20025;-64
2022/04/19 07:03:55;;;;;;;6.45;1.40;;;17.10;59.10;;;;;;5034517;28;20096;-64
2022/04/19 07:06:21;;;;;;;2.72;0.98;;;17.20;59.10;;;;;;5033734;28;20025;-64
2022/04/19 07:08:47;;;;;;;6.35;1.50;;;17.10;59.10;;;;;;5016794;28;20042;-64
2022/04/19 07:11:12;;;;;;;5.28;1.85;;;17.10;59.20;;;;;;5034488;28;20084;-64
2022/04/19 07:13:38;;;;;;;4.60;1.35;;;17.10;59.00;;;;;;5035161;28;20017;-64
2022/04/19 07:16:05;;;;;;;6.93;1.67;;;17.10;59.00;;;;;;5034183;28;20030;-64
2022/04/19 07:18:31;;;;;;;6.72;1.65;;;17.10;59.00;;;;;;5035348;28;20060;-64
2022/04/19 07:29:12;;;;;;;5.35;1.33;;;17.10;59.00;;;;;;5034887;28;20060;-64
2022/04/19 07:31:46;;;;;;;4.43;1.80;;;17.00;59.00;;;;;;5033805;28;20025;-64
2022/04/19 07:34:11;;;;;;;7.15;1.58;;;17.10;59.00;;;;;;5035012;28;20021;-64
2022/04/19 07:36:40;;;;;;;8.30;1.63;;;17.00;59.00;;;;;;5033847;28;20024;-64
2022/04/19 07:39:07;;;;;;;4.93;1.67;;;17.10;59.00;;;;;;5034631;28;20491;-64
2022/04/19 07:41:34;;;;;;;6.25;1.70;;;17.00;58.90;;;;;;5033368;28;20030;-64
2022/04/19 07:44:01;;;;;;;4.30;1.33;;;17.00;58.90;;;;;;5033682;28;20105;-64
2022/04/19 07:46:26;;;;;;;5.82;1.35;;;17.00;58.90;;;;;;5033720;28;20021;-64
2022/04/19 07:48:52;;;;;;;4.63;1.25;;;17.00;58.90;;;;;;5033427;28;20100;-64
2022/04/19 07:51:17;;;;;;;3.80;1.60;;;17.00;58.80;;;;;;5035009;28;20057;-64
2022/04/19 07:53:43;;;;;;;5.35;1.48;;;17.00;58.80;;;;;;5034691;28;20088;-64
2022/04/19 07:56:09;;;;;;;3.58;1.40;;;17.00;58.90;;;;;;5032845;28;20031;-64
2022/04/19 07:58:34;;;;;;;1.25;0.90;;;17.00;58.80;;;;;;5032814;28;20034;-64
2022/04/19 08:01:00;;;;;;;7.50;1.58;;;17.00;58.90;;;;;;5034377;28;20045;-64
2022/04/19 08:03:26;;;;;;;4.63;1.27;;;17.00;58.70;;;;;;5034730;28;20399;-64
2022/04/19 08:05:52;;;;;;;4.13;1.52;;;17.00;58.70;;;;;;5034236;28;20051;-64
2022/04/19 08:08:18;;;;;;;6.00;1.30;;;16.90;58.70;;;;;;5034589;28;20100;-64
2022/04/19 08:10:50;;;;;;;4.00;1.10;;;16.90;58.70;;;;;;5034304;28;20056;-64
2022/04/19 08:13:16;;;;;;;5.32;1.15;;;17.00;58.70;;;;;;5033189;28;20086;-64
2022/04/19 08:15:41;;;;;;;6.28;1.48;;;16.90;58.60;;;;;;5033071;28;20029;-64
2022/04/19 08:18:11;;;;;;;2.88;0.90;;;16.90;58.40;;;;;;5034426;28;20480;-64
2022/04/19 08:20:37;;;;;;;5.22;1.40;;;16.90;58.40;;;;;;5032739;28;20515;-64
2022/04/19 08:23:03;;;;;;;2.67;1.15;;;16.80;58.30;;;;;;5034063;28;20535;-64
2022/04/19 08:25:29;;;;;;;1.88;1.00;;;16.80;58.40;;;;;;5016174;28;20017;-64
2022/04/19 08:27:55;;;;;;;1.92;0.82;;;16.80;58.50;;;;;;5032777;28;20385;-64
2022/04/19 08:30:21;;;;;;;5.65;1.50;;;16.80;58.40;;;;;;5032868;28;20025;-64
2022/04/19 08:32:46;;;;;;;8.20;1.20;;;16.80;58.40;;;;;;5033937;28;20021;-64
2022/04/19 08:35:12;;;;;;;3.85;1.20;;;16.80;58.40;;;;;;5033814;28;20036;-64
2022/04/19 08:37:38;;;;;;;3.20;1.33;;;16.80;58.40;;;;;;5033729;28;20049;-64
2022/04/19 08:40:08;;;;;;;2.38;1.13;;;16.80;58.40;;;;;;5033623;28;20548;-64
2022/04/19 08:42:35;;;;;;;2.65;1.02;;;16.80;58.30;;;;;;5032644;28;20013;-64
2022/04/19 08:45:02;;;;;;;1.90;0.95;;;16.80;58.20;;;;;;5032300;28;20022;-64
2022/04/19 08:47:32;;;;;;;3.78;1.17;;;16.80;58.30;;;;;;5033670;28;20097;-64
2022/04/19 08:50:00;;;;;;;1.02;0.82;;;16.80;58.30;;;;;;5032503;28;20018;-64
2022/04/19 08:52:26;;;;;;;2.03;0.93;;;16.80;58.30;;;;;;5032497;28;20495;-64
2022/04/19 08:57:37;;;;;;;2.08;0.70;;;16.70;58.10;;;;;;5032574;28;20530;-64
2022/04/19 09:00:04;;;;;;;2.50;1.00;;;16.70;58.20;;;;;;5033313;28;20056;-64
2022/04/19 09:02:32;;;;;;;3.42;1.10;;;16.70;58.10;;;;;;5033387;28;20082;-64
2022/04/19 09:05:21;;;;;;;2.67;0.80;;;16.70;58.20;;;;;;5031887;28;20376;-64
2022/04/19 09:07:51;;;;;;;3.35;1.15;;;16.80;58.00;;;;;;5032791;28;20026;-64
2022/04/19 09:10:30;;;;;;;3.65;1.08;;;16.80;58.10;;;;;;5032900;28;20531;-64
2022/04/19 09:13:00;;;;;;;5.80;1.38;;;16.80;58.00;;;;;;5033073;28;20484;-63
2022/04/19 09:15:33;;;;;;;3.75;1.13;;;16.70;58.10;;;;;;5032235;28;20400;-63
2022/04/19 09:17:59;;;;;;;4.43;1.15;;;16.80;58.00;;;;;;5031749;28;20465;-64
2022/04/19 09:20:25;;;;;;;3.55;1.15;;;16.70;58.00;;;;;;5032880;28;20116;-64
2022/04/19 09:23:08;;;;;;;2.30;0.75;;;16.70;58.00;;;;;;5032644;28;20028;-64
2022/04/19 09:25:34;;;;;;;2.58;0.80;;;16.70;57.90;;;;;;5032886;28;20029;-63
2022/04/19 09:28:01;;;;;;;4.18;0.82;;;16.70;58.00;;;;;;5031744;28;20377;-63
2022/04/19 09:30:31;;;;;;;1.13;0.55;;;16.70;58.00;;;;;;5032917;28;20391;-63
2022/04/19 09:33:01;;;;;;;1.90;0.93;;;16.70;58.00;;;;;;5031588;28;20021;-64
2022/04/19 09:35:33;;;;;;;2.63;1.00;;;16.70;57.90;;;;;;5032853;28;20048;-63
2022/04/19 09:37:59;;;;;;;2.13;0.80;;;16.80;57.90;;;;;;5032253;28;20401;-64
2022/04/19 09:40:29;;;;;;;3.92;0.95;;;16.70;57.90;;;;;;5032500;28;20057;-63
2022/04/19 09:42:57;;;;;;;1.83;0.75;;;16.70;57.80;;;;;;5031396;28;20021;-63
2022/04/19 09:45:25;;;;;;;2.28;0.70;;;16.70;57.70;;;;;;5032808;28;20476;-64
2022/04/19 09:47:51;;;;;;;2.50;0.88;;;16.70;58.00;;;;;;5015162;28;20114;-63
2022/04/19 09:50:17;;;;;;;1.58;0.70;;;16.60;57.50;;;;;;5032593;28;20469;-63
2022/04/19 09:52:50;;;;;;;5.07;1.00;;;16.60;57.50;;;;;;5032521;28;20100;-63
2022/04/19 09:55:16;;;;;;;2.15;0.75;;;16.60;57.50;;;;;;5032471;28;20025;-63
2022/04/19 09:57:45;;;;;;;2.40;1.02;;;16.60;57.50;;;;;;5032496;28;20078;-63
2022/04/19 10:00:13;;;;;;;3.35;0.90;;;16.60;57.50;;;;;;5032256;28;20022;-64
2022/04/19 10:08:10;;;;;;;2.25;0.75;;;16.60;57.50;;;;;;5032291;28;20095;-63
2022/04/19 10:10:36;;;;;;;2.17;0.98;;;16.60;57.50;;;;;;5032469;28;20399;-64
2022/04/19 10:13:03;;;;;;;2.40;0.95;;;16.60;57.50;;;;;;5032105;28;20040;-64
2022/04/19 10:15:31;;;;;;;1.30;0.65;;;16.50;57.30;;;;;;5032530;28;20029;-64
2022/04/19 10:17:57;;;;;;;2.53;0.70;;;16.50;57.20;;;;;;5014810;28;20049;-64
2022/04/19 10:20:31;;;;;;;1.77;0.77;;;16.50;57.10;;;;;;5033629;28;20127;-64
2022/04/19 10:23:01;;;;;;;2.45;0.88;;;16.50;57.10;;;;;;5036254;28;20468;-64
2022/04/19 10:25:40;;;;;;;1.55;0.50;;;16.50;57.20;;;;;;5035329;28;20028;-64
2022/04/19 10:28:09;;;;;;;1.05;0.50;;;16.50;57.10;;;;;;5035274;28;20034;-63
2022/04/19 10:30:39;;;;;;;1.70;0.73;;;16.50;57.20;;;;;;5035310;28;20499;-63
2022/04/19 10:33:44;;;;;;;1.17;0.57;;;16.60;57.20;;;;;;5034867;28;20502;-63
2022/04/19 10:36:13;;;;;;;2.13;1.10;;;16.60;56.90;;;;;;5035963;28;20026;-63
2022/04/19 10:38:38;;;;;;;2.65;0.75;;;16.50;57.00;;;;;;5035781;28;20047;-63
2022/04/19 10:41:04;;;;;;;3.97;0.80;;;16.50;56.90;;;;;;5035891;28;20109;-64
2022/04/19 10:43:30;;;;;;;3.28;0.90;;;16.50;57.00;;;;;;5036151;28;20044;-64
2022/04/19 10:46:19;;;;;;;3.05;0.70;;;16.50;56.90;;;;;;5034887;28;20013;-63
2022/04/19 10:49:22;;;;;;;3.53;0.80;;;16.50;56.40;;;;;;5036033;28;20033;-64
2022/04/19 10:51:52;;;;;;;;;;;16.50;56.40;;;;;;5036219;28;20088;-63
2022/04/19 10:54:44;;;;;;;1.23;0.60;;;16.40;56.20;;;;;;5035897;28;19912;-63
2022/04/19 11:00:23;;;;;;;3.30;0.55;;;16.40;56.90;;;;;;5035597;28;20181;-63
2022/04/19 11:03:00;;;;;;;2.65;0.82;;;16.40;56.70;;;;;;5035769;28;20017;-64
2022/04/19 11:05:43;;;;;;;2.03;0.68;;;16.40;56.70;;;;;;5034147;28;20104;-63
2022/04/19 11:08:24;;;;;;;1.38;0.70;;;16.50;56.70;;;;;;5034321;28;20028;-63
2022/04/19 11:10:51;;;;;;;1.73;0.77;;;16.40;56.60;;;;;;5035568;28;20113;-63
2022/04/19 11:13:17;;;;;;;3.85;0.80;;;16.40;56.90;;;;;;5034217;28;20026;-63
2022/04/19 11:15:42;;;;;;;4.40;0.65;;;16.40;56.60;;;;;;5035509;28;20053;-63
2022/04/19 11:18:28;;;;;;;1.52;0.55;;;16.40;56.40;;;;;;5035379;28;20150;-63
2022/04/19 11:20:56;;;;;;;0.88;0.50;;;16.50;55.90;;;;;;5033881;28;20152;-63
2022/04/19 11:23:24;;;;;;;3.70;0.90;;;16.40;56.30;;;;;;5034278;28;20049;-64
2022/04/19 11:25:51;;;;;;;1.13;0.60;;;16.40;56.20;;;;;;5033789;28;20021;-63
2022/04/19 11:28:24;;;;;;;1.75;0.65;;;16.40;56.20;;;;;;5035113;28;20491;-63
2022/04/19 11:30:50;;;;;;;1.73;0.60;;;16.40;56.00;;;;;;5035120;28;20009;-63
2022/04/19 11:33:22;;;;;;;3.78;0.57;;;16.30;56.00;;;;;;5034770;28;20404;-63
2022/04/19 11:36:12;;;;;;;1.77;0.60;;;16.40;56.00;;;;;;5035347;28;20036;-63
2022/04/19 11:38:49;;;;;;;3.00;0.57;;;16.40;55.60;;;;;;5034800;28;20049;-64
2022/04/19 11:46:47;;;;;;;4.78;1.20;;;16.30;55.80;;;;;;5020014;28;20060;-64
2022/04/19 11:49:16;;;;;;;2.25;0.57;;;16.30;55.80;;;;;;5034457;28;20105;-63
2022/04/19 11:51:58;;;;;;;1.92;0.90;;;16.30;55.80;;;;;;5034665;28;20057;-63
2022/04/19 11:54:30;;;;;;;2.35;0.75;;;16.40;55.60;;;;;;5034708;28;20079;-63
2022/04/19 11:56:57;;;;;;;1.88;0.73;;;16.30;55.60;;;;;;5034712;28;20033;-63
2022/04/19 11:59:30;;;;;;;1.67;0.77;;;16.30;55.60;;;;;;5033415;28;20017;-63
2022/04/19 12:01:56;;;;;;;1.58;0.60;;;16.30;55.50;;;;;;5033251;28;20031;-63
2022/04/19 12:04:22;;;;;;;3.17;1.00;;;16.40;55.70;;;;;;5034129;28;20024;-63
2022/04/19 12:06:53;;;;;;;1.23;0.70;;;16.30;55.60;;;;;;5034191;28;20112;-64
2022/04/19 12:09:18;;;;;;;2.65;0.77;;;16.40;55.50;;;;;;5034234;28;20017;-63
2022/04/19 12:11:45;;;;;;;2.67;0.82;;;16.40;55.60;;;;;;5033158;28;20025;-63
2022/04/19 12:14:31;;;;;;;1.88;0.60;;;16.40;55.50;;;;;;5033000;28;20026;-64
2022/04/19 12:17:00;;;;;;;3.05;0.85;;;16.40;55.40;;;;;;5032605;28;20045;-63
2022/04/19 12:19:39;;;;;;;1.88;0.65;;;16.40;55.60;;;;;;5034080;28;20017;-63
2022/04/19 12:22:23;;;;;;;2.67;0.75;;;16.40;55.20;;;;;;5033922;28;20033;-63
2022/04/19 12:24:58;;;;;;;4.07;0.70;;;16.40;55.00;;;;;;5032810;28;20080;-64
2022/04/19 12:27:28;;;;;;;3.25;0.80;;;16.40;55.30;;;;;;5032814;28;20462;-63
2022/04/19 12:30:04;;;;;;;2.75;0.80;;;16.40;55.20;;;;;;5016916;28;20088;-63
2022/04/19 12:33:13;;;;;;;1.45;0.50;;;16.40;55.00;;;;;;5033482;28;20376;-64
2022/04/19 12:35:39;;;;;;;1.75;0.65;;;16.40;54.60;;;;;;5011962;28;20025;-63
2022/04/19 12:38:18;;;;;;;2.05;0.70;;;16.40;55.20;;;;;;5011618;28;20065;-64
2022/04/19 12:40:43;;;;;;;1.20;0.57;;;16.40;55.10;;;;;;4996411;28;20029;-64
2022/04/19 12:43:10;;;;;;;2.25;0.70;;;16.40;55.20;;;;;;5011097;28;20096;-64
2022/04/19 12:45:36;;;;;;;3.53;0.80;;;16.40;55.20;;;;;;5011727;28;20015;-63
2022/04/19 12:48:07;;;;;;;2.70;0.75;;;16.40;55.00;;;;;;4995155;28;20129;-63
2022/04/19 12:50:32;;;;;;;2.08;0.65;;;16.40;54.90;;;;;;4995534;28;20504;-63
2022/04/19 12:52:58;;;;;;;1.42;0.40;;;16.40;54.90;;;;;;4995238;28;20117;-63
2022/04/19 12:55:30;;;;;;;1.70;0.70;;;16.40;54.90;;;;;;5011451;28;20030;-63
2022/04/19 12:58:06;;;;;;;0.80;0.52;;;16.40;54.90;;;;;;5011620;28;20175;-63
2022/04/19 13:00:32;;;;;;;2.50;0.90;;;16.50;54.80;;;;;;5011110;28;20030;-63
2022/04/19 13:02:58;;;;;;;0.98;0.52;;;16.50;55.00;;;;;;5011475;28;20594;-63
2022/04/19 13:12:16;;;;;;;2.45;1.00;;;16.50;54.90;;;;;;5011104;28;20034;-64
2022/04/19 13:13:37;;;;;;;1.35;0.45;;;16.50;54.90;;;;;;5022337;28;20180;-63
2022/04/19 13:16:03;;;;;;;1.05;0.63;;;16.50;54.90;;;;;;5033081;28;20535;-63
2022/04/19 13:18:28;;;;;;;1.95;0.38;;;16.50;54.90;;;;;;5031756;28;20029;-63
2022/04/19 13:20:54;;;;;;;1.23;0.38;;;16.50;54.90;;;;;;5032921;28;20037;-63
2022/04/19 13:23:20;;;;;;;1.50;0.47;;;16.60;55.00;;;;;;5031623;28;20025;-64
2022/04/19 13:25:45;;;;;;;1.85;0.57;;;16.60;54.90;;;;;;5032910;28;20022;-63
2022/04/19 13:28:11;;;;;;;2.58;0.88;;;16.60;54.90;;;;;;5032773;28;20025;-64
2022/04/19 13:30:39;;;;;;;1.27;0.40;;;16.60;54.90;;;;;;5032719;28;20021;-63
2022/04/19 13:33:05;;;;;;;0.75;0.63;;;16.60;54.70;;;;;;5032914;28;20392;-63
2022/04/19 13:35:31;;;;;;;1.95;0.63;;;16.60;54.80;;;;;;5032706;28;20029;-63